sensor_id;sensor_type;location;lat;lon;timestamp;pressure;altitude;pressure_sealevel;temperature;humidity
61474;BME280;53694;49.784;30.150;2023-04-01T00:00:29;98390.48;;;11.30;71.35
61474;BME280;53694;49.784;30.150;2023-04-01T00:01:30;98393.27;;;10.98;72.42
61474;BME280;53694;49.784;30.150;2023-04-01T00:02:32;98394.84;;;10.74;73.51
61474;BME280;53694;49.784;30.150;2023-04-01T00:03:34;98396.81;;;10.59;74.41
61474;BME280;53694;49.784;30.150;2023-04-01T00:04:36;98396.41;;;10.61;74.61
61474;BME280;53694;49.784;30.150;2023-04-01T00:05:37;98395.64;;;10.71;74.79
61474;BME280;53694;49.784;30.150;2023-04-01T00:06:39;98399.56;;;10.81;74.39
61474;BME280;53694;49.784;30.150;2023-04-01T00:07:40;98393.67;;;10.89;74.14
61474;BME280;53694;49.784;30.150;2023-04-01T00:08:42;98403.08;;;11.03;73.88
61474;BME280;53694;49.784;30.150;2023-04-01T00:09:44;98391.68;;;11.15;73.57
61474;BME280;53694;49.784;30.150;2023-04-01T00:10:45;98403.45;;;11.22;73.04
61474;BME280;53694;49.784;30.150;2023-04-01T00:11:47;98387.34;;;11.28;72.51
61474;BME280;53694;49.784;30.150;2023-04-01T00:12:49;98396.73;;;11.38;72.66
61474;BME280;53694;49.784;30.150;2023-04-01T00:13:50;98392.78;;;11.46;72.21
61474;BME280;53694;49.784;30.150;2023-04-01T00:14:52;98389.62;;;11.51;71.89
61474;BME280;53694;49.784;30.150;2023-04-01T00:15:54;98384.89;;;11.59;71.66
61474;BME280;53694;49.784;30.150;2023-04-01T00:16:56;98383.31;;;11.65;71.36
61474;BME280;53694;49.784;30.150;2023-04-01T00:17:58;98377.80;;;11.68;71.11
61474;BME280;53694;49.784;30.150;2023-04-01T00:19:00;98387.98;;;11.71;71.08
61474;BME280;53694;49.784;30.150;2023-04-01T00:20:04;98390.36;;;11.73;70.66
61474;BME280;53694;49.784;30.150;2023-04-01T00:21:06;98391.91;;;11.78;70.76
61474;BME280;53694;49.784;30.150;2023-04-01T00:22:07;98385.20;;;11.82;70.52
61474;BME280;53694;49.784;30.150;2023-04-01T00:23:09;98386.38;;;11.88;70.22
61474;BME280;53694;49.784;30.150;2023-04-01T00:24:10;98383.61;;;11.92;70.10
61474;BME280;53694;49.784;30.150;2023-04-01T00:25:13;98380.84;;;11.95;69.90
61474;BME280;53694;49.784;30.150;2023-04-01T00:26:14;98387.89;;;12.00;69.77
61474;BME280;53694;49.784;30.150;2023-04-01T00:27:16;98384.73;;;12.01;69.48
61474;BME280;53694;49.784;30.150;2023-04-01T00:28:19;98395.80;;;11.94;69.41
61474;BME280;53694;49.784;30.150;2023-04-01T00:29:21;98389.16;;;11.74;69.76
61474;BME280;53694;49.784;30.150;2023-04-01T00:30:22;98397.50;;;11.49;70.62
61474;BME280;53694;49.784;30.150;2023-04-01T00:31:24;98399.14;;;11.18;71.56
61474;BME280;53694;49.784;30.150;2023-04-01T00:32:25;98394.45;;;10.83;72.75
61474;BME280;53694;49.784;30.150;2023-04-01T00:33:27;98397.58;;;10.56;73.98
61474;BME280;53694;49.784;30.150;2023-04-01T00:34:28;98395.99;;;10.44;74.85
61474;BME280;53694;49.784;30.150;2023-04-01T00:35:30;98394.43;;;10.43;75.20
61474;BME280;53694;49.784;30.150;2023-04-01T00:36:32;98397.98;;;10.55;75.41
61474;BME280;53694;49.784;30.150;2023-04-01T00:37:35;98390.16;;;10.71;75.15
61474;BME280;53694;49.784;30.150;2023-04-01T00:38:37;98393.67;;;10.89;74.64
61474;BME280;53694;49.784;30.150;2023-04-01T00:39:39;98396.02;;;11.09;73.97
61474;BME280;53694;49.784;30.150;2023-04-01T00:40:46;98393.61;;;11.29;73.65
61474;BME280;53694;49.784;30.150;2023-04-01T00:41:48;98388.47;;;11.48;72.85
61474;BME280;53694;49.784;30.150;2023-04-01T00:42:49;98391.94;;;11.67;72.03
61474;BME280;53694;49.784;30.150;2023-04-01T00:43:51;98389.53;;;11.80;71.22
61474;BME280;53694;49.784;30.150;2023-04-01T00:44:54;98391.09;;;11.91;70.67
61474;BME280;53694;49.784;30.150;2023-04-01T00:45:56;98387.12;;;11.99;69.83
61474;BME280;53694;49.784;30.150;2023-04-01T00:46:58;98388.65;;;12.08;69.98
61474;BME280;53694;49.784;30.150;2023-04-01T00:48:03;98382.31;;;12.14;69.44
61474;BME280;53694;49.784;30.150;2023-04-01T00:49:05;98393.73;;;12.13;68.71
61474;BME280;53694;49.784;30.150;2023-04-01T00:50:07;98386.38;;;11.88;69.16
61474;BME280;53694;49.784;30.150;2023-04-01T00:51:31;98391.98;;;11.60;70.01
61474;BME280;53694;49.784;30.150;2023-04-01T00:52:17;98395.17;;;11.30;71.11
61474;BME280;53694;49.784;30.150;2023-04-01T00:53:20;98392.89;;;10.92;72.31
61474;BME280;53694;49.784;30.150;2023-04-01T00:54:24;98395.22;;;10.62;73.50
61474;BME280;53694;49.784;30.150;2023-04-01T00:55:28;98389.73;;;10.47;74.41
61474;BME280;53694;49.784;30.150;2023-04-01T00:56:34;98392.09;;;10.45;74.84
61474;BME280;53694;49.784;30.150;2023-04-01T00:57:37;98388.19;;;10.54;74.96
61474;BME280;53694;49.784;30.150;2023-04-01T00:58:43;98392.90;;;10.71;74.95
61474;BME280;53694;49.784;30.150;2023-04-01T00:59:48;98388.58;;;10.88;74.55
61474;BME280;53694;49.784;30.150;2023-04-01T01:00:51;98394.43;;;11.04;73.54
61474;BME280;53694;49.784;30.150;2023-04-01T01:01:53;98382.25;;;11.16;73.05
61474;BME280;53694;49.784;30.150;2023-04-01T01:02:55;98384.59;;;11.21;72.32
61474;BME280;53694;49.784;30.150;2023-04-01T01:03:56;98378.72;;;11.26;72.16
61474;BME280;53694;49.784;30.150;2023-04-01T01:04:58;98390.08;;;11.35;72.02
61474;BME280;53694;49.784;30.150;2023-04-01T01:09:06;98386.49;;;11.53;71.30
61474;BME280;53694;49.784;30.150;2023-04-01T01:10:14;98388.04;;;11.61;71.08
61474;BME280;53694;49.784;30.150;2023-04-01T01:11:17;98395.81;;;11.76;70.38
61474;BME280;53694;49.784;30.150;2023-04-01T01:12:40;98399.77;;;11.83;69.86
61474;BME280;53694;49.784;30.150;2023-04-01T01:14:02;98398.95;;;11.82;69.45
61474;BME280;53694;49.784;30.150;2023-04-01T01:15:26;98399.75;;;11.79;69.70
61474;BME280;53694;49.784;30.150;2023-04-01T01:16:34;98413.94;;;11.63;69.55
61474;BME280;53694;49.784;30.150;2023-04-01T01:17:44;98408.13;;;11.29;70.68
61474;BME280;53694;49.784;30.150;2023-04-01T01:22:06;98400.63;;;10.19;75.06
61474;BME280;53694;49.784;30.150;2023-04-01T01:24:25;98415.19;;;10.30;75.75
61474;BME280;53694;49.784;30.150;2023-04-01T01:25:38;98397.59;;;10.45;75.25
61474;BME280;53694;49.784;30.150;2023-04-01T01:27:49;98400.73;;;10.72;74.51
61474;BME280;53694;49.784;30.150;2023-04-01T01:33:31;98404.60;;;11.32;72.03
61474;BME280;53694;49.784;30.150;2023-04-01T01:35:44;98402.59;;;11.50;70.93
61474;BME280;53694;49.784;30.150;2023-04-01T01:36:50;98408.48;;;11.60;70.79
61474;BME280;53694;49.784;30.150;2023-04-01T01:37:55;98407.65;;;11.70;70.21
61474;BME280;53694;49.784;30.150;2023-04-01T01:38:58;98407.65;;;11.70;69.63
61474;BME280;53694;49.784;30.150;2023-04-01T01:40:03;98405.27;;;11.72;69.86
61474;BME280;53694;49.784;30.150;2023-04-01T01:41:07;98400.94;;;11.78;69.64
61474;BME280;53694;49.784;30.150;2023-04-01T01:42:13;98407.63;;;11.77;69.59
61474;BME280;53694;49.784;30.150;2023-04-01T01:43:17;98400.59;;;11.62;69.65
61474;BME280;53694;49.784;30.150;2023-04-01T01:44:21;98418.34;;;11.36;70.11
61474;BME280;53694;49.784;30.150;2023-04-01T01:45:25;98413.69;;;11.00;71.09
61474;BME280;53694;49.784;30.150;2023-04-01T01:46:29;98399.95;;;10.58;72.39
61474;BME280;53694;49.784;30.150;2023-04-01T01:47:32;98408.13;;;10.25;73.82
61474;BME280;53694;49.784;30.150;2023-04-01T01:48:36;98407.26;;;10.11;74.78
61474;BME280;53694;49.784;30.150;2023-04-01T01:49:39;98404.52;;;10.11;75.23
61474;BME280;53694;49.784;30.150;2023-04-01T01:50:44;98401.42;;;10.16;75.35
61474;BME280;53694;49.784;30.150;2023-04-01T01:51:47;98399.51;;;10.31;75.26
61474;BME280;53694;49.784;30.150;2023-04-01T01:52:48;98406.61;;;10.49;74.75
61474;BME280;53694;49.784;30.150;2023-04-01T01:53:50;98403.87;;;10.64;73.85
61474;BME280;53694;49.784;30.150;2023-04-01T01:54:54;98411.72;;;10.76;73.51
61474;BME280;53694;49.784;30.150;2023-04-01T01:55:56;98426.62;;;10.82;72.57
61474;BME280;53694;49.784;30.150;2023-04-01T01:57:08;98419.17;;;10.90;72.44
61474;BME280;53694;49.784;30.150;2023-04-01T01:59:19;98419.97;;;11.01;71.89
61474;BME280;53694;49.784;30.150;2023-04-01T02:00:22;98416.03;;;11.06;71.71
61474;BME280;53694;49.784;30.150;2023-04-01T02:01:26;98420.34;;;11.03;71.21
61474;BME280;53694;49.784;30.150;2023-04-01T02:02:29;98420.34;;;11.03;71.47
61474;BME280;53694;49.784;30.150;2023-04-01T02:03:35;98426.62;;;11.04;71.33
61474;BME280;53694;49.784;30.150;2023-04-01T02:04:42;98418.00;;;11.05;71.78
61474;BME280;53694;49.784;30.150;2023-04-01T02:05:46;98419.94;;;11.12;71.58
61474;BME280;53694;49.784;30.150;2023-04-01T02:06:55;98424.25;;;11.20;71.18
61474;BME280;53694;49.784;30.150;2023-04-01T02:08:16;98417.57;;;11.21;70.69
61474;BME280;53694;49.784;30.150;2023-04-01T02:09:19;98414.03;;;11.28;70.99
61474;BME280;53694;49.784;30.150;2023-04-01T02:10:22;98418.72;;;11.38;70.74
61474;BME280;53694;49.784;30.150;2023-04-01T02:11:30;98417.92;;;11.48;70.51
61474;BME280;53694;49.784;30.150;2023-04-01T02:12:33;98423.38;;;11.59;69.76
61474;BME280;53694;49.784;30.150;2023-04-01T02:13:53;98413.57;;;11.61;69.71
61474;BME280;53694;49.784;30.150;2023-04-01T02:14:58;98423.37;;;11.66;69.59
61474;BME280;53694;49.784;30.150;2023-04-01T02:16:04;98411.23;;;11.60;69.38
61474;BME280;53694;49.784;30.150;2023-04-01T02:17:11;98410.88;;;11.43;69.91
61474;BME280;53694;49.784;30.150;2023-04-01T02:18:15;98406.98;;;11.19;70.62
61474;BME280;53694;49.784;30.150;2023-04-01T02:19:18;98402.67;;;10.47;72.66
61474;BME280;53694;49.784;30.150;2023-04-01T02:20:22;98402.67;;;10.47;72.66
61474;BME280;53694;49.784;30.150;2023-04-01T02:21:27;98401.42;;;10.16;73.94
61474;BME280;53694;49.784;30.150;2023-04-01T02:22:33;98405.70;;;10.03;74.97
61474;BME280;53694;49.784;30.150;2023-04-01T02:23:36;98415.47;;;10.00;75.43
61474;BME280;53694;49.784;30.150;2023-04-01T02:24:40;98405.30;;;10.04;75.42
61474;BME280;53694;49.784;30.150;2023-04-01T02:25:43;98403.75;;;10.14;75.35
61474;BME280;53694;49.784;30.150;2023-04-01T02:26:46;98402.23;;;10.27;75.20
61474;BME280;53694;49.784;30.150;2023-04-01T02:27:48;98408.55;;;10.42;74.66
61474;BME280;53694;49.784;30.150;2023-04-01T02:28:50;98407.77;;;10.52;74.32
61474;BME280;53694;49.784;30.150;2023-04-01T02:29:54;98408.58;;;10.63;74.00
61474;BME280;53694;49.784;30.150;2023-04-01T02:30:57;98406.23;;;10.72;73.49
61474;BME280;53694;49.784;30.150;2023-04-01T02:31:59;98406.24;;;10.83;73.04
61474;BME280;53694;49.784;30.150;2023-04-01T02:33:03;98409.75;;;10.91;72.82
61474;BME280;53694;49.784;30.150;2023-04-01T02:34:05;98403.86;;;10.99;72.38
61474;BME280;53694;49.784;30.150;2023-04-01T02:35:09;98410.13;;;11.04;72.23
61474;BME280;53694;49.784;30.150;2023-04-01T02:36:21;98410.13;;;11.07;71.77
61474;BME280;53694;49.784;30.150;2023-04-01T02:37:23;98408.58;;;11.10;71.60
61474;BME280;53694;49.784;30.150;2023-04-01T02:38:25;98406.98;;;11.16;71.42
61474;BME280;53694;49.784;30.150;2023-04-01T02:39:27;98414.82;;;11.24;71.31
61474;BME280;53694;49.784;30.150;2023-04-01T02:40:28;98414.03;;;11.31;71.00
61474;BME280;53694;49.784;30.150;2023-04-01T02:41:30;98406.16;;;11.37;70.52
61474;BME280;53694;49.784;30.150;2023-04-01T02:42:32;98413.22;;;11.38;70.20
61474;BME280;53694;49.784;30.150;2023-04-01T02:43:33;98420.31;;;11.39;70.16
61474;BME280;53694;49.784;30.150;2023-04-01T02:44:35;98415.59;;;11.39;69.89
61474;BME280;53694;49.784;30.150;2023-04-01T02:45:37;98419.50;;;11.38;69.65
61474;BME280;53694;49.784;30.150;2023-04-01T02:46:39;98419.91;;;11.37;69.82
61474;BME280;53694;49.784;30.150;2023-04-01T02:47:41;98421.09;;;11.29;69.71
61474;BME280;53694;49.784;30.150;2023-04-01T02:48:42;98421.13;;;11.07;70.19
61474;BME280;53694;49.784;30.150;2023-04-01T02:49:44;98418.00;;;10.80;71.03
61474;BME280;53694;49.784;30.150;2023-04-01T02:50:46;98422.67;;;10.47;72.21
61474;BME280;53694;49.784;30.150;2023-04-01T02:51:47;98413.17;;;10.23;73.29
61474;BME280;53694;49.784;30.150;2023-04-01T02:52:49;98420.98;;;10.11;73.83
61474;BME280;53694;49.784;30.150;2023-04-01T02:53:50;98422.14;;;10.06;74.22
61474;BME280;53694;49.784;30.150;2023-04-01T02:54:52;98417.86;;;10.12;74.60
61474;BME280;53694;49.784;30.150;2023-04-01T02:55:54;98412.01;;;10.21;74.29
61474;BME280;53694;49.784;30.150;2023-04-01T02:56:56;98408.53;;;10.35;74.24
61474;BME280;53694;49.784;30.150;2023-04-01T02:57:58;98409.36;;;10.49;73.61
61474;BME280;53694;49.784;30.150;2023-04-01T02:58:59;98407.80;;;10.63;73.26
61474;BME280;53694;49.784;30.150;2023-04-01T03:00:01;98408.58;;;10.78;72.93
61474;BME280;53694;49.784;30.150;2023-04-01T03:01:03;98403.88;;;10.89;72.33
61474;BME280;53694;49.784;30.150;2023-04-01T03:02:04;98404.64;;;11.00;71.73
61474;BME280;53694;49.784;30.150;2023-04-01T03:03:06;98405.42;;;11.08;71.55
61474;BME280;53694;49.784;30.150;2023-04-01T03:04:07;98392.05;;;11.17;71.09
61474;BME280;53694;49.784;30.150;2023-04-01T03:05:09;98395.98;;;11.23;70.79
61474;BME280;53694;49.784;30.150;2023-04-01T03:06:13;98395.58;;;11.32;70.56
61474;BME280;53694;49.784;30.150;2023-04-01T03:07:15;98384.95;;;11.37;70.26
61474;BME280;53694;49.784;30.150;2023-04-01T03:08:17;98382.61;;;11.39;69.91
61474;BME280;53694;49.784;30.150;2023-04-01T03:09:18;98381.41;;;11.44;69.79
61474;BME280;53694;49.784;30.150;2023-04-01T03:10:20;98384.16;;;11.44;69.50
61474;BME280;53694;49.784;30.150;2023-04-01T03:11:22;98391.27;;;11.31;69.39
61474;BME280;53694;49.784;30.150;2023-04-01T03:12:23;98393.65;;;11.14;70.00
61474;BME280;53694;49.784;30.150;2023-04-01T03:13:25;98386.21;;;10.86;70.88
61474;BME280;53694;49.784;30.150;2023-04-01T03:14:26;98389.75;;;10.55;71.79
61474;BME280;53694;49.784;30.150;2023-04-01T03:15:28;98395.92;;;10.23;73.02
61474;BME280;53694;49.784;30.150;2023-04-01T03:16:29;98398.23;;;9.99;74.13
61474;BME280;53694;49.784;30.150;2023-04-01T03:17:31;98395.84;;;9.87;74.94
61474;BME280;53694;49.784;30.150;2023-04-01T03:18:32;98394.66;;;9.88;75.37
61474;BME280;53694;49.784;30.150;2023-04-01T03:19:34;98395.48;;;9.96;75.32
61474;BME280;53694;49.784;30.150;2023-04-01T03:20:36;98400.61;;;10.08;75.12
61474;BME280;53694;49.784;30.150;2023-04-01T03:21:37;98394.36;;;10.22;74.75
61474;BME280;53694;49.784;30.150;2023-04-01T03:22:39;98394.03;;;10.34;74.38
61474;BME280;53694;49.784;30.150;2023-04-01T03:23:41;98394.06;;;10.45;73.81
61474;BME280;53694;49.784;30.150;2023-04-01T03:24:42;98407.78;;;10.56;73.53
61474;BME280;53694;49.784;30.150;2023-04-01T03:25:44;98411.33;;;10.67;73.01
61474;BME280;53694;49.784;30.150;2023-04-01T03:26:45;98413.29;;;10.81;72.47
61474;BME280;53694;49.784;30.150;2023-04-01T03:27:47;98405.03;;;10.91;72.11
61474;BME280;53694;49.784;30.150;2023-04-01T03:28:48;98409.34;;;10.99;71.35
61474;BME280;53694;49.784;30.150;2023-04-01T03:29:50;98410.13;;;11.07;71.32
61474;BME280;53694;49.784;30.150;2023-04-01T03:30:51;98405.02;;;11.13;70.89
61474;BME280;53694;49.784;30.150;2023-04-01T03:31:53;98402.67;;;11.18;70.69
61474;BME280;53694;49.784;30.150;2023-04-01T03:32:54;98404.23;;;11.23;70.56
61474;BME280;53694;49.784;30.150;2023-04-01T03:33:56;98403.83;;;11.28;70.32
61474;BME280;53694;49.784;30.150;2023-04-01T03:34:57;98399.89;;;11.36;70.31
61474;BME280;53694;49.784;30.150;2023-04-01T03:35:59;98403.78;;;11.46;69.95
61474;BME280;53694;49.784;30.150;2023-04-01T03:37:04;98408.48;;;11.53;69.39
61474;BME280;53694;49.784;30.150;2023-04-01T03:38:05;98417.52;;;11.57;69.18
61474;BME280;53694;49.784;30.150;2023-04-01T03:39:07;98410.05;;;11.54;69.10
61474;BME280;53694;49.784;30.150;2023-04-01T03:40:09;98414.00;;;11.38;69.21
61474;BME280;53694;49.784;30.150;2023-04-01T03:41:13;98416.41;;;11.11;69.71
61474;BME280;53694;49.784;30.150;2023-04-01T03:42:15;98418.78;;;10.77;70.74
61474;BME280;53694;49.784;30.150;2023-04-01T03:43:16;98417.16;;;10.40;71.95
61474;BME280;53694;49.784;30.150;2023-04-01T03:44:18;98424.89;;;10.03;73.21
61474;BME280;53694;49.784;30.150;2023-04-01T03:45:19;98422.03;;;9.74;74.50
61474;BME280;53694;49.784;30.150;2023-04-01T03:46:22;98419.99;;;9.57;75.49
61474;BME280;53694;49.784;30.150;2023-04-01T03:47:23;98422.31;;;9.55;75.99
61474;BME280;53694;49.784;30.150;2023-04-01T03:48:25;98439.59;;;9.62;76.12
61474;BME280;53694;49.784;30.150;2023-04-01T03:49:27;98439.27;;;9.74;75.98
61474;BME280;53694;49.784;30.150;2023-04-01T03:50:28;98442.84;;;9.89;75.60
61474;BME280;53694;49.784;30.150;2023-04-01T03:51:30;98442.94;;;10.07;75.03
61474;BME280;53694;49.784;30.150;2023-04-01T03:52:31;98435.52;;;10.22;74.42
61474;BME280;53694;49.784;30.150;2023-04-01T03:53:33;98433.24;;;10.38;73.92
61474;BME280;53694;49.784;30.150;2023-04-01T03:54:34;98431.70;;;10.51;73.51
61474;BME280;53694;49.784;30.150;2023-04-01T03:55:38;98430.14;;;10.65;72.56
61474;BME280;53694;49.784;30.150;2023-04-01T03:56:40;98427.81;;;10.70;71.91
61474;BME280;53694;49.784;30.150;2023-04-01T03:57:42;98421.91;;;10.83;72.22
61474;BME280;53694;49.784;30.150;2023-04-01T03:58:43;98420.74;;;10.98;71.64
61474;BME280;53694;49.784;30.150;2023-04-01T03:59:45;98422.71;;;11.05;71.20
61474;BME280;53694;49.784;30.150;2023-04-01T04:00:46;98425.03;;;11.17;71.08
61474;BME280;53694;49.784;30.150;2023-04-01T04:01:48;98419.12;;;11.29;70.19
61474;BME280;53694;49.784;30.150;2023-04-01T04:02:49;98415.59;;;11.32;69.75
61474;BME280;53694;49.784;30.150;2023-04-01T04:03:51;98418.75;;;11.34;69.59
61474;BME280;53694;49.784;30.150;2023-04-01T04:04:52;98415.59;;;11.32;69.45
61474;BME280;53694;49.784;30.150;2023-04-01T04:05:54;98411.70;;;11.26;69.52
61474;BME280;53694;49.784;30.150;2023-04-01T04:06:55;98401.11;;;11.10;69.95
61474;BME280;53694;49.784;30.150;2023-04-01T04:07:57;98411.73;;;10.83;70.45
61474;BME280;53694;49.784;30.150;2023-04-01T04:08:59;98403.86;;;10.49;71.52
61474;BME280;53694;49.784;30.150;2023-04-01T04:10:00;98404.93;;;10.13;72.77
61474;BME280;53694;49.784;30.150;2023-04-01T04:11:02;98404.44;;;9.82;74.02
61474;BME280;53694;49.784;30.150;2023-04-01T04:12:04;98407.52;;;9.70;75.12
61474;BME280;53694;49.784;30.150;2023-04-01T04:13:05;98398.50;;;9.66;75.55
61474;BME280;53694;49.784;30.150;2023-04-01T04:14:07;98402.84;;;9.74;75.50
61474;BME280;53694;49.784;30.150;2023-04-01T04:15:09;98396.60;;;9.84;75.34
61474;BME280;53694;49.784;30.150;2023-04-01T04:16:11;98406.05;;;9.97;75.17
61474;BME280;53694;49.784;30.150;2023-04-01T04:17:12;98406.89;;;10.12;74.78
61474;BME280;53694;49.784;30.150;2023-04-01T04:18:14;98401.86;;;10.25;74.12
61474;BME280;53694;49.784;30.150;2023-04-01T04:19:15;98396.00;;;10.37;73.63
61474;BME280;53694;49.784;30.150;2023-04-01T04:20:17;98404.65;;;10.50;73.33
61474;BME280;53694;49.784;30.150;2023-04-01T04:21:19;98405.05;;;10.63;72.69
61474;BME280;53694;49.784;30.150;2023-04-01T04:22:20;98404.26;;;10.69;72.42
61474;BME280;53694;49.784;30.150;2023-04-01T04:23:23;98405.45;;;10.79;72.14
61474;BME280;53694;49.784;30.150;2023-04-01T04:24:24;98397.20;;;10.86;71.72
61474;BME280;53694;49.784;30.150;2023-04-01T04:25:26;98397.58;;;10.95;71.59
61474;BME280;53694;49.784;30.150;2023-04-01T04:26:28;98397.98;;;11.05;70.94
61474;BME280;53694;49.784;30.150;2023-04-01T04:27:29;98400.33;;;11.10;70.51
61474;BME280;53694;49.784;30.150;2023-04-01T04:28:31;98399.14;;;11.14;70.20
61474;BME280;53694;49.784;30.150;2023-04-01T04:29:33;98401.48;;;11.16;69.94
61474;BME280;53694;49.784;30.150;2023-04-01T04:30:34;98399.52;;;11.16;69.82
61474;BME280;53694;49.784;30.150;2023-04-01T04:31:36;98404.23;;;11.16;69.65
61474;BME280;53694;49.784;30.150;2023-04-01T04:32:37;98403.86;;;11.14;70.02
61474;BME280;53694;49.784;30.150;2023-04-01T04:33:39;98401.89;;;11.04;70.30
61474;BME280;53694;49.784;30.150;2023-04-01T04:34:40;98400.75;;;10.83;70.71
61474;BME280;53694;49.784;30.150;2023-04-01T04:35:42;98396.02;;;10.66;71.41
61474;BME280;53694;49.784;30.150;2023-04-01T04:36:44;98404.64;;;10.57;71.71
61474;BME280;53694;49.784;30.150;2023-04-01T04:37:45;98398.77;;;10.55;71.95
61474;BME280;53694;49.784;30.150;2023-04-01T04:38:47;98402.30;;;10.59;71.89
61474;BME280;53694;49.784;30.150;2023-04-01T04:39:49;98402.31;;;10.66;71.84
61474;BME280;53694;49.784;30.150;2023-04-01T04:40:51;98404.67;;;10.75;71.75
61474;BME280;53694;49.784;30.150;2023-04-01T04:41:52;98399.56;;;10.84;71.58
61474;BME280;53694;49.784;30.150;2023-04-01T04:42:54;98397.58;;;10.95;71.18
61474;BME280;53694;49.784;30.150;2023-04-01T04:43:56;98399.14;;;11.04;70.89
61474;BME280;53694;49.784;30.150;2023-04-01T04:44:57;98397.17;;;11.11;70.64
61474;BME280;53694;49.784;30.150;2023-04-01T04:46:10;98396.40;;;11.14;70.46
61474;BME280;53694;49.784;30.150;2023-04-01T04:47:12;98393.24;;;11.19;70.26
61474;BME280;53694;49.784;30.150;2023-04-01T04:48:15;98386.96;;;11.26;70.14
61474;BME280;53694;49.784;30.150;2023-04-01T04:49:17;98392.05;;;11.31;69.94
61474;BME280;53694;49.784;30.150;2023-04-01T04:50:18;98384.18;;;11.33;69.53
61474;BME280;53694;49.784;30.150;2023-04-01T04:51:20;98388.52;;;11.34;69.67
61474;BME280;53694;49.784;30.150;2023-04-01T04:52:22;98389.30;;;11.31;69.55
61474;BME280;53694;49.784;30.150;2023-04-01T04:53:24;98391.28;;;11.16;69.91
61474;BME280;53694;49.784;30.150;2023-04-01T04:54:25;98391.30;;;10.91;70.27
61474;BME280;53694;49.784;30.150;2023-04-01T04:55:27;98390.13;;;10.57;71.32
61474;BME280;53694;49.784;30.150;2023-04-01T04:56:28;98378.30;;;10.20;72.63
61474;BME280;53694;49.784;30.150;2023-04-01T04:57:30;98391.16;;;9.91;73.87
61474;BME280;53694;49.784;30.150;2023-04-01T04:58:32;98390.72;;;9.79;74.81
61474;BME280;53694;49.784;30.150;2023-04-01T04:59:33;98389.94;;;9.78;75.29
61474;BME280;53694;49.784;30.150;2023-04-01T05:00:35;98393.09;;;9.87;75.45
61474;BME280;53694;49.784;30.150;2023-04-01T05:01:36;98400.20;;;10.03;75.34
61474;BME280;53694;49.784;30.150;2023-04-01T05:02:38;98392.02;;;10.20;74.88
61474;BME280;53694;49.784;30.150;2023-04-01T05:03:39;98405.40;;;10.40;74.21
61474;BME280;53694;49.784;30.150;2023-04-01T05:04:41;98399.95;;;10.58;74.05
61474;BME280;53694;49.784;30.150;2023-04-01T05:05:51;98407.39;;;10.79;73.15
61474;BME280;53694;49.784;30.150;2023-04-01T05:06:53;98398.77;;;10.94;72.76
61474;BME280;53694;49.784;30.150;2023-04-01T05:07:54;98406.98;;;11.16;71.96
61474;BME280;53694;49.784;30.150;2023-04-01T05:08:56;98399.52;;;11.27;71.27
61474;BME280;53694;49.784;30.150;2023-04-01T05:09:57;98408.50;;;11.38;70.71
61474;BME280;53694;49.784;30.150;2023-04-01T05:10:59;98414.00;;;11.45;70.42
61474;BME280;53694;49.784;30.150;2023-04-01T05:12:01;98403.77;;;11.53;70.03
61474;BME280;53694;49.784;30.150;2023-04-01T05:13:02;98407.66;;;11.63;69.79
61474;BME280;53694;49.784;30.150;2023-04-01T05:14:04;98414.70;;;11.71;69.10
61474;BME280;53694;49.784;30.150;2023-04-01T05:15:06;98414.70;;;11.74;68.78
61474;BME280;53694;49.784;30.150;2023-04-01T05:16:14;98415.50;;;11.68;68.40
61474;BME280;53694;49.784;30.150;2023-04-01T05:17:16;98417.93;;;11.44;68.83
61474;BME280;53694;49.784;30.150;2023-04-01T05:18:23;98417.19;;;11.08;69.83
61474;BME280;53694;49.784;30.150;2023-04-01T05:19:25;98423.11;;;10.71;71.30
61474;BME280;53694;49.784;30.150;2023-04-01T05:20:26;98415.97;;;10.31;72.74
61474;BME280;53694;49.784;30.150;2023-04-01T05:21:28;98419.38;;;9.95;74.22
61474;BME280;53694;49.784;30.150;2023-04-01T05:22:29;98431.39;;;9.66;75.62
61474;BME280;53694;49.784;30.150;2023-04-01T05:23:32;98431.71;;;9.54;76.81
61474;BME280;53694;49.784;30.150;2023-04-01T05:24:33;98427.44;;;9.56;77.28
61474;BME280;53694;49.784;30.150;2023-04-01T05:25:37;98427.08;;;9.65;77.26
61474;BME280;53694;49.784;30.150;2023-04-01T05:26:39;98430.27;;;9.81;77.12
61474;BME280;53694;49.784;30.150;2023-04-01T05:27:40;98429.58;;;9.98;76.72
61474;BME280;53694;49.784;30.150;2023-04-01T05:28:42;98421.00;;;10.18;76.36
61474;BME280;53694;49.784;30.150;2023-04-01T05:29:43;98429.30;;;10.36;75.50
61474;BME280;53694;49.784;30.150;2023-04-01T05:30:45;98419.55;;;10.45;74.65
61474;BME280;53694;49.784;30.150;2023-04-01T05:31:47;98421.92;;;10.58;74.59
61474;BME280;53694;49.784;30.150;2023-04-01T05:32:48;98416.80;;;10.74;73.96
61474;BME280;53694;49.784;30.150;2023-04-01T05:33:50;98422.72;;;10.83;73.35
61474;BME280;53694;49.784;30.150;2023-04-01T05:34:52;98415.65;;;10.93;73.12
61474;BME280;53694;49.784;30.150;2023-04-01T05:35:54;98417.22;;;11.05;72.74
61474;BME280;53694;49.784;30.150;2023-04-01T05:36:56;98422.69;;;11.12;72.07
61474;BME280;53694;49.784;30.150;2023-04-01T05:37:58;98421.13;;;11.21;72.12
61474;BME280;53694;49.784;30.150;2023-04-01T05:38:59;98416.37;;;11.29;71.75
61474;BME280;53694;49.784;30.150;2023-04-01T05:40:01;98422.25;;;11.38;71.17
61474;BME280;53694;49.784;30.150;2023-04-01T05:41:03;98417.53;;;11.42;70.57
61474;BME280;53694;49.784;30.150;2023-04-01T05:42:08;98423.43;;;11.44;70.33
61474;BME280;53694;49.784;30.150;2023-04-01T05:43:09;98419.90;;;11.47;70.32
61474;BME280;53694;49.784;30.150;2023-04-01T05:44:12;98413.21;;;11.48;70.16